sensor_id;sensor_type;location;lat;lon;timestamp;P1;durP1;ratioP1;P2;durP2;ratioP2
48552;SDS011;34335;51.566;6.994;2023-05-10T00:00:36;3.72;;;1.38;;
48552;SDS011;34335;51.566;6.994;2023-05-10T00:03:01;2.23;;;1.00;;
48552;SDS011;34335;51.566;6.994;2023-05-10T00:05:29;4.03;;;1.67;;
48552;SDS011;34335;51.566;6.994;2023-05-10T00:07:54;4.10;;;1.70;;
48552;SDS011;34335;51.566;6.994;2023-05-10T00:10:19;4.72;;;1.90;;
48552;SDS011;34335;51.566;6.994;2023-05-10T00:12:45;4.83;;;2.10;;
48552;SDS011;34335;51.566;6.994;2023-05-10T00:15:10;5.35;;;2.00;;
48552;SDS011;34335;51.566;6.994;2023-05-10T00:17:35;5.38;;;2.35;;
48552;SDS011;34335;51.566;6.994;2023-05-10T00:20:01;4.23;;;1.63;;
48552;SDS011;34335;51.566;6.994;2023-05-10T00:22:26;4.10;;;2.20;;
48552;SDS011;34335;51.566;6.994;2023-05-10T00:24:52;4.45;;;1.98;;
48552;SDS011;34335;51.566;6.994;2023-05-10T00:27:17;4.77;;;2.30;;
48552;SDS011;34335;51.566;6.994;2023-05-10T00:29:42;4.60;;;1.90;;
48552;SDS011;34335;51.566;6.994;2023-05-10T00:32:07;4.57;;;1.83;;
48552;SDS011;34335;51.566;6.994;2023-05-10T00:34:33;5.40;;;2.47;;
48552;SDS011;34335;51.566;6.994;2023-05-10T00:36:58;6.28;;;2.15;;
48552;SDS011;34335;51.566;6.994;2023-05-10T00:39:23;4.87;;;2.50;;
48552;SDS011;34335;51.566;6.994;2023-05-10T00:41:49;3.92;;;2.10;;
48552;SDS011;34335;51.566;6.994;2023-05-10T00:44:14;4.28;;;1.95;;
48552;SDS011;34335;51.566;6.994;2023-05-10T00:46:39;6.17;;;2.60;;
48552;SDS011;34335;51.566;6.994;2023-05-10T00:49:06;5.03;;;2.03;;
48552;SDS011;34335;51.566;6.994;2023-05-10T00:51:31;5.53;;;1.77;;
48552;SDS011;34335;51.566;6.994;2023-05-10T00:53:57;3.97;;;2.00;;
48552;SDS011;34335;51.566;6.994;2023-05-10T00:56:23;3.88;;;1.70;;
48552;SDS011;34335;51.566;6.994;2023-05-10T00:58:50;4.00;;;1.58;;
48552;SDS011;34335;51.566;6.994;2023-05-10T01:01:15;4.97;;;1.40;;
48552;SDS011;34335;51.566;6.994;2023-05-10T01:03:41;2.47;;;1.23;;
48552;SDS011;34335;51.566;6.994;2023-05-10T01:06:06;4.05;;;1.83;;
48552;SDS011;34335;51.566;6.994;2023-05-10T01:08:32;2.35;;;1.00;;
48552;SDS011;34335;51.566;6.994;2023-05-10T01:10:57;3.05;;;1.27;;
48552;SDS011;34335;51.566;6.994;2023-05-10T01:13:33;2.10;;;0.95;;
48552;SDS011;34335;51.566;6.994;2023-05-10T01:16:02;2.10;;;1.10;;
48552;SDS011;34335;51.566;6.994;2023-05-10T01:18:29;3.08;;;1.33;;
48552;SDS011;34335;51.566;6.994;2023-05-10T01:30:27;3.90;;;1.85;;
48552;SDS011;34335;51.566;6.994;2023-05-10T01:35:17;3.22;;;1.67;;
48552;SDS011;34335;51.566;6.994;2023-05-10T01:37:45;4.90;;;1.85;;
48552;SDS011;34335;51.566;6.994;2023-05-10T01:40:19;6.05;;;2.33;;
48552;SDS011;34335;51.566;6.994;2023-05-10T01:42:55;4.75;;;1.90;;
48552;SDS011;34335;51.566;6.994;2023-05-10T01:45:37;5.50;;;2.38;;
48552;SDS011;34335;51.566;6.994;2023-05-10T01:48:12;4.50;;;2.05;;
48552;SDS011;34335;51.566;6.994;2023-05-10T01:50:40;4.45;;;2.10;;
48552;SDS011;34335;51.566;6.994;2023-05-10T01:53:08;2.95;;;1.52;;
48552;SDS011;34335;51.566;6.994;2023-05-10T01:55:51;3.67;;;2.08;;
48552;SDS011;34335;51.566;6.994;2023-05-10T01:58:20;5.82;;;1.92;;
48552;SDS011;34335;51.566;6.994;2023-05-10T02:00:48;5.22;;;2.30;;
48552;SDS011;34335;51.566;6.994;2023-05-10T02:03:16;7.88;;;3.15;;
48552;SDS011;34335;51.566;6.994;2023-05-10T02:05:46;4.18;;;2.00;;
48552;SDS011;34335;51.566;6.994;2023-05-10T02:08:14;6.45;;;2.67;;
48552;SDS011;34335;51.566;6.994;2023-05-10T02:10:42;4.68;;;2.17;;
48552;SDS011;34335;51.566;6.994;2023-05-10T02:13:11;6.20;;;2.33;;
48552;SDS011;34335;51.566;6.994;2023-05-10T02:15:38;5.85;;;2.58;;
48552;SDS011;34335;51.566;6.994;2023-05-10T02:18:05;10.73;;;2.50;;
48552;SDS011;34335;51.566;6.994;2023-05-10T02:20:32;6.60;;;2.65;;
48552;SDS011;34335;51.566;6.994;2023-05-10T02:22:59;7.40;;;2.97;;
48552;SDS011;34335;51.566;6.994;2023-05-10T02:25:26;7.57;;;3.17;;
48552;SDS011;34335;51.566;6.994;2023-05-10T02:27:55;6.47;;;2.70;;
48552;SDS011;34335;51.566;6.994;2023-05-10T02:30:22;6.35;;;3.50;;
48552;SDS011;34335;51.566;6.994;2023-05-10T02:32:49;7.65;;;2.55;;
48552;SDS011;34335;51.566;6.994;2023-05-10T02:35:15;7.35;;;2.50;;
48552;SDS011;34335;51.566;6.994;2023-05-10T02:37:41;7.85;;;3.83;;
48552;SDS011;34335;51.566;6.994;2023-05-10T02:40:08;7.13;;;3.17;;
48552;SDS011;34335;51.566;6.994;2023-05-10T02:42:36;6.85;;;2.92;;
48552;SDS011;34335;51.566;6.994;2023-05-10T02:45:07;5.80;;;2.90;;
48552;SDS011;34335;51.566;6.994;2023-05-10T02:47:36;6.38;;;3.00;;
48552;SDS011;34335;51.566;6.994;2023-05-10T02:50:02;6.82;;;3.22;;
48552;SDS011;34335;51.566;6.994;2023-05-10T02:52:28;6.13;;;2.60;;
48552;SDS011;34335;51.566;6.994;2023-05-10T02:55:00;7.07;;;3.33;;
48552;SDS011;34335;51.566;6.994;2023-05-10T02:57:28;7.60;;;3.85;;
48552;SDS011;34335;51.566;6.994;2023-05-10T02:59:57;7.15;;;3.35;;
48552;SDS011;34335;51.566;6.994;2023-05-10T03:02:23;9.35;;;3.22;;
48552;SDS011;34335;51.566;6.994;2023-05-10T03:04:48;8.20;;;2.83;;
48552;SDS011;34335;51.566;6.994;2023-05-10T03:07:14;7.95;;;3.92;;
48552;SDS011;34335;51.566;6.994;2023-05-10T03:09:39;5.70;;;2.75;;
48552;SDS011;34335;51.566;6.994;2023-05-10T03:12:12;8.00;;;3.75;;
48552;SDS011;34335;51.566;6.994;2023-05-10T03:14:49;6.55;;;3.25;;
48552;SDS011;34335;51.566;6.994;2023-05-10T03:17:35;6.35;;;3.03;;
48552;SDS011;34335;51.566;6.994;2023-05-10T03:20:24;8.18;;;3.40;;
48552;SDS011;34335;51.566;6.994;2023-05-10T03:23:12;6.18;;;3.08;;
48552;SDS011;34335;51.566;6.994;2023-05-10T03:25:47;8.23;;;3.70;;
48552;SDS011;34335;51.566;6.994;2023-05-10T03:28:13;7.40;;;3.80;;
48552;SDS011;34335;51.566;6.994;2023-05-10T03:30:40;8.15;;;3.45;;
48552;SDS011;34335;51.566;6.994;2023-05-10T03:33:07;10.20;;;3.22;;
48552;SDS011;34335;51.566;6.994;2023-05-10T03:35:33;8.13;;;3.47;;
48552;SDS011;34335;51.566;6.994;2023-05-10T03:37:59;9.80;;;3.53;;
48552;SDS011;34335;51.566;6.994;2023-05-10T03:40:24;9.73;;;3.65;;
48552;SDS011;34335;51.566;6.994;2023-05-10T03:42:51;9.40;;;3.90;;
48552;SDS011;34335;51.566;6.994;2023-05-10T03:45:16;8.77;;;4.67;;
48552;SDS011;34335;51.566;6.994;2023-05-10T03:47:42;9.55;;;4.63;;
48552;SDS011;34335;51.566;6.994;2023-05-10T03:50:07;8.30;;;4.13;;
48552;SDS011;34335;51.566;6.994;2023-05-10T03:52:32;8.85;;;3.83;;
48552;SDS011;34335;51.566;6.994;2023-05-10T03:54:58;9.18;;;4.20;;
48552;SDS011;34335;51.566;6.994;2023-05-10T03:57:23;8.33;;;4.23;;
48552;SDS011;34335;51.566;6.994;2023-05-10T03:59:49;9.93;;;4.93;;
48552;SDS011;34335;51.566;6.994;2023-05-10T04:02:14;13.07;;;6.18;;
48552;SDS011;34335;51.566;6.994;2023-05-10T04:04:39;12.53;;;5.43;;
48552;SDS011;34335;51.566;6.994;2023-05-10T04:07:04;9.38;;;4.65;;
48552;SDS011;34335;51.566;6.994;2023-05-10T04:09:30;12.35;;;5.90;;
48552;SDS011;34335;51.566;6.994;2023-05-10T04:11:55;17.38;;;6.95;;
48552;SDS011;34335;51.566;6.994;2023-05-10T04:14:21;14.02;;;6.75;;
48552;SDS011;34335;51.566;6.994;2023-05-10T04:16:46;12.97;;;6.30;;
48552;SDS011;34335;51.566;6.994;2023-05-10T04:19:11;17.70;;;6.97;;
48552;SDS011;34335;51.566;6.994;2023-05-10T04:21:36;18.02;;;6.40;;
48552;SDS011;34335;51.566;6.994;2023-05-10T04:24:02;15.17;;;7.17;;
48552;SDS011;34335;51.566;6.994;2023-05-10T04:26:27;20.20;;;7.40;;
48552;SDS011;34335;51.566;6.994;2023-05-10T04:28:52;18.10;;;6.33;;
48552;SDS011;34335;51.566;6.994;2023-05-10T04:31:18;22.87;;;7.83;;
48552;SDS011;34335;51.566;6.994;2023-05-10T04:33:43;23.83;;;6.90;;
48552;SDS011;34335;51.566;6.994;2023-05-10T04:36:08;14.27;;;6.63;;
48552;SDS011;34335;51.566;6.994;2023-05-10T04:38:34;14.63;;;6.68;;
48552;SDS011;34335;51.566;6.994;2023-05-10T04:41:10;17.08;;;6.70;;
48552;SDS011;34335;51.566;6.994;2023-05-10T04:43:36;13.30;;;7.35;;
48552;SDS011;34335;51.566;6.994;2023-05-10T04:46:02;16.15;;;6.15;;
48552;SDS011;34335;51.566;6.994;2023-05-10T04:48:28;12.80;;;5.50;;
48552;SDS011;34335;51.566;6.994;2023-05-10T04:50:53;22.42;;;7.32;;
48552;SDS011;34335;51.566;6.994;2023-05-10T04:53:18;13.85;;;7.15;;
48552;SDS011;34335;51.566;6.994;2023-05-10T04:55:44;17.93;;;7.17;;
48552;SDS011;34335;51.566;6.994;2023-05-10T04:58:09;21.65;;;6.93;;
48552;SDS011;34335;51.566;6.994;2023-05-10T05:00:34;14.10;;;6.70;;
48552;SDS011;34335;51.566;6.994;2023-05-10T05:03:00;20.60;;;9.05;;
48552;SDS011;34335;51.566;6.994;2023-05-10T05:05:25;17.13;;;7.30;;
48552;SDS011;34335;51.566;6.994;2023-05-10T05:07:51;14.05;;;5.15;;
48552;SDS011;34335;51.566;6.994;2023-05-10T05:10:16;17.43;;;8.40;;
48552;SDS011;34335;51.566;6.994;2023-05-10T05:12:41;15.00;;;6.65;;
48552;SDS011;34335;51.566;6.994;2023-05-10T05:15:07;19.47;;;7.73;;
48552;SDS011;34335;51.566;6.994;2023-05-10T05:17:34;14.90;;;6.38;;
48552;SDS011;34335;51.566;6.994;2023-05-10T05:19:59;20.83;;;9.30;;
48552;SDS011;34335;51.566;6.994;2023-05-10T05:22:24;13.07;;;7.20;;
48552;SDS011;34335;51.566;6.994;2023-05-10T05:24:53;16.38;;;7.82;;
48552;SDS011;34335;51.566;6.994;2023-05-10T05:27:19;20.40;;;8.18;;
48552;SDS011;34335;51.566;6.994;2023-05-10T05:29:47;20.27;;;6.95;;
48552;SDS011;34335;51.566;6.994;2023-05-10T05:32:12;19.17;;;7.32;;
48552;SDS011;34335;51.566;6.994;2023-05-10T05:34:37;18.03;;;6.57;;
48552;SDS011;34335;51.566;6.994;2023-05-10T05:37:03;17.57;;;7.57;;
48552;SDS011;34335;51.566;6.994;2023-05-10T05:39:28;19.47;;;7.03;;
48552;SDS011;34335;51.566;6.994;2023-05-10T05:41:53;17.17;;;7.83;;
48552;SDS011;34335;51.566;6.994;2023-05-10T05:44:19;20.05;;;8.48;;
48552;SDS011;34335;51.566;6.994;2023-05-10T05:46:44;18.50;;;8.07;;
48552;SDS011;34335;51.566;6.994;2023-05-10T05:49:10;17.48;;;7.47;;
48552;SDS011;34335;51.566;6.994;2023-05-10T05:51:35;15.77;;;6.80;;
48552;SDS011;34335;51.566;6.994;2023-05-10T05:54:00;15.30;;;7.43;;
48552;SDS011;34335;51.566;6.994;2023-05-10T05:56:26;13.90;;;6.55;;
48552;SDS011;34335;51.566;6.994;2023-05-10T05:58:51;16.55;;;8.07;;
48552;SDS011;34335;51.566;6.994;2023-05-10T06:01:17;19.48;;;8.10;;
48552;SDS011;34335;51.566;6.994;2023-05-10T06:03:42;15.98;;;7.53;;
48552;SDS011;34335;51.566;6.994;2023-05-10T06:06:07;17.73;;;8.00;;
48552;SDS011;34335;51.566;6.994;2023-05-10T06:08:33;17.60;;;7.70;;
48552;SDS011;34335;51.566;6.994;2023-05-10T06:10:59;17.52;;;7.85;;
48552;SDS011;34335;51.566;6.994;2023-05-10T06:13:24;15.75;;;8.13;;
48552;SDS011;34335;51.566;6.994;2023-05-10T06:15:50;18.80;;;7.38;;
48552;SDS011;34335;51.566;6.994;2023-05-10T06:18:15;16.08;;;6.55;;
48552;SDS011;34335;51.566;6.994;2023-05-10T06:20:41;17.20;;;8.13;;
48552;SDS011;34335;51.566;6.994;2023-05-10T06:23:07;17.23;;;9.02;;
48552;SDS011;34335;51.566;6.994;2023-05-10T06:25:32;20.33;;;8.10;;
48552;SDS011;34335;51.566;6.994;2023-05-10T06:27:57;21.27;;;9.10;;
48552;SDS011;34335;51.566;6.994;2023-05-10T06:30:23;19.45;;;7.88;;
48552;SDS011;34335;51.566;6.994;2023-05-10T06:32:52;19.48;;;8.75;;
48552;SDS011;34335;51.566;6.994;2023-05-10T06:35:18;20.80;;;8.88;;
48552;SDS011;34335;51.566;6.994;2023-05-10T06:37:43;18.45;;;6.72;;
48552;SDS011;34335;51.566;6.994;2023-05-10T06:40:09;19.33;;;7.93;;
48552;SDS011;34335;51.566;6.994;2023-05-10T06:42:34;18.52;;;8.65;;
48552;SDS011;34335;51.566;6.994;2023-05-10T06:45:00;17.67;;;8.57;;
48552;SDS011;34335;51.566;6.994;2023-05-10T06:47:25;15.97;;;7.50;;
48552;SDS011;34335;51.566;6.994;2023-05-10T06:49:50;14.32;;;6.97;;
48552;SDS011;34335;51.566;6.994;2023-05-10T06:52:16;16.45;;;8.27;;
48552;SDS011;34335;51.566;6.994;2023-05-10T06:54:41;19.40;;;8.67;;
48552;SDS011;34335;51.566;6.994;2023-05-10T06:57:06;21.97;;;8.67;;
48552;SDS011;34335;51.566;6.994;2023-05-10T06:59:31;15.90;;;8.40;;
48552;SDS011;34335;51.566;6.994;2023-05-10T07:01:57;27.27;;;8.60;;
48552;SDS011;34335;51.566;6.994;2023-05-10T07:04:22;21.73;;;9.00;;
48552;SDS011;34335;51.566;6.994;2023-05-10T07:06:47;22.70;;;8.83;;
48552;SDS011;34335;51.566;6.994;2023-05-10T07:09:14;18.77;;;7.78;;
48552;SDS011;34335;51.566;6.994;2023-05-10T07:11:39;19.67;;;8.27;;
48552;SDS011;34335;51.566;6.994;2023-05-10T07:14:05;19.90;;;9.77;;
48552;SDS011;34335;51.566;6.994;2023-05-10T07:16:30;16.90;;;8.67;;
48552;SDS011;34335;51.566;6.994;2023-05-10T07:18:55;26.27;;;9.00;;
48552;SDS011;34335;51.566;6.994;2023-05-10T07:21:21;19.00;;;7.93;;
48552;SDS011;34335;51.566;6.994;2023-05-10T07:23:48;15.75;;;7.60;;
48552;SDS011;34335;51.566;6.994;2023-05-10T07:26:14;16.30;;;7.05;;
48552;SDS011;34335;51.566;6.994;2023-05-10T07:28:39;24.25;;;8.82;;
48552;SDS011;34335;51.566;6.994;2023-05-10T07:31:05;20.70;;;8.82;;
48552;SDS011;34335;51.566;6.994;2023-05-10T07:33:30;24.65;;;7.82;;
48552;SDS011;34335;51.566;6.994;2023-05-10T07:35:56;17.83;;;8.02;;
48552;SDS011;34335;51.566;6.994;2023-05-10T07:38:21;20.90;;;9.07;;
48552;SDS011;34335;51.566;6.994;2023-05-10T07:40:46;20.25;;;8.40;;
48552;SDS011;34335;51.566;6.994;2023-05-10T07:43:11;19.90;;;7.68;;
48552;SDS011;34335;51.566;6.994;2023-05-10T07:45:37;19.97;;;9.63;;
48552;SDS011;34335;51.566;6.994;2023-05-10T07:48:02;16.60;;;9.03;;
48552;SDS011;34335;51.566;6.994;2023-05-10T07:50:28;21.63;;;9.15;;
48552;SDS011;34335;51.566;6.994;2023-05-10T07:52:53;17.63;;;9.57;;
48552;SDS011;34335;51.566;6.994;2023-05-10T07:55:18;21.50;;;7.32;;
48552;SDS011;34335;51.566;6.994;2023-05-10T07:57:46;23.55;;;8.48;;
48552;SDS011;34335;51.566;6.994;2023-05-10T08:00:12;19.20;;;8.73;;
48552;SDS011;34335;51.566;6.994;2023-05-10T08:02:38;26.00;;;9.18;;
48552;SDS011;34335;51.566;6.994;2023-05-10T08:05:03;18.75;;;9.50;;
48552;SDS011;34335;51.566;6.994;2023-05-10T08:07:30;19.50;;;8.55;;
48552;SDS011;34335;51.566;6.994;2023-05-10T08:09:55;20.17;;;8.50;;
48552;SDS011;34335;51.566;6.994;2023-05-10T08:12:20;28.93;;;10.23;;
48552;SDS011;34335;51.566;6.994;2023-05-10T08:14:46;24.23;;;9.68;;
48552;SDS011;34335;51.566;6.994;2023-05-10T08:17:11;19.80;;;8.13;;
48552;SDS011;34335;51.566;6.994;2023-05-10T08:19:37;22.57;;;9.70;;
48552;SDS011;34335;51.566;6.994;2023-05-10T08:22:02;20.83;;;9.47;;
48552;SDS011;34335;51.566;6.994;2023-05-10T08:24:27;18.50;;;8.57;;
48552;SDS011;34335;51.566;6.994;2023-05-10T08:26:52;23.55;;;8.45;;
48552;SDS011;34335;51.566;6.994;2023-05-10T08:29:18;21.17;;;10.00;;
48552;SDS011;34335;51.566;6.994;2023-05-10T08:31:43;17.33;;;7.33;;
48552;SDS011;34335;51.566;6.994;2023-05-10T08:34:08;21.70;;;9.53;;
48552;SDS011;34335;51.566;6.994;2023-05-10T08:36:33;19.73;;;8.77;;
48552;SDS011;34335;51.566;6.994;2023-05-10T08:38:59;14.40;;;6.87;;
48552;SDS011;34335;51.566;6.994;2023-05-10T08:41:25;17.10;;;7.15;;
48552;SDS011;34335;51.566;6.994;2023-05-10T08:43:51;16.67;;;6.60;;
48552;SDS011;34335;51.566;6.994;2023-05-10T08:46:17;17.60;;;7.18;;
48552;SDS011;34335;51.566;6.994;2023-05-10T14:19:43;5.57;;;2.45;;
48552;SDS011;34335;51.566;6.994;2023-05-10T14:22:08;5.10;;;2.73;;
48552;SDS011;34335;51.566;6.994;2023-05-10T14:24:34;6.95;;;3.80;;
48552;SDS011;34335;51.566;6.994;2023-05-10T14:26:59;7.23;;;2.90;;
48552;SDS011;34335;51.566;6.994;2023-05-10T14:29:25;7.43;;;3.38;;
48552;SDS011;34335;51.566;6.994;2023-05-10T14:32:08;7.40;;;3.35;;
48552;SDS011;34335;51.566;6.994;2023-05-10T14:34:34;8.48;;;3.42;;
48552;SDS011;34335;51.566;6.994;2023-05-10T14:36:59;5.93;;;2.97;;
48552;SDS011;34335;51.566;6.994;2023-05-10T14:39:24;6.43;;;2.92;;
48552;SDS011;34335;51.566;6.994;2023-05-10T14:41:50;4.95;;;2.75;;
48552;SDS011;34335;51.566;6.994;2023-05-10T14:44:17;5.45;;;2.50;;
48552;SDS011;34335;51.566;6.994;2023-05-10T14:46:42;6.53;;;2.77;;
48552;SDS011;34335;51.566;6.994;2023-05-10T14:49:07;5.87;;;2.90;;
48552;SDS011;34335;51.566;6.994;2023-05-10T14:51:32;6.77;;;2.93;;
48552;SDS011;34335;51.566;6.994;2023-05-10T14:53:58;4.47;;;2.60;;
48552;SDS011;34335;51.566;6.994;2023-05-10T14:56:23;5.38;;;2.90;;
48552;SDS011;34335;51.566;6.994;2023-05-10T14:58:50;4.85;;;2.35;;
48552;SDS011;34335;51.566;6.994;2023-05-10T15:01:15;5.10;;;3.00;;
48552;SDS011;34335;51.566;6.994;2023-05-10T15:03:41;4.50;;;2.20;;
48552;SDS011;34335;51.566;6.994;2023-05-10T15:06:07;5.50;;;2.20;;
48552;SDS011;34335;51.566;6.994;2023-05-10T15:08:33;5.75;;;2.78;;
48552;SDS011;34335;51.566;6.994;2023-05-10T15:10:58;6.50;;;4.23;;
48552;SDS011;34335;51.566;6.994;2023-05-10T15:13:23;7.67;;;3.33;;
48552;SDS011;34335;51.566;6.994;2023-05-10T15:15:48;7.00;;;2.77;;
48552;SDS011;34335;51.566;6.994;2023-05-10T15:18:14;5.15;;;2.92;;
48552;SDS011;34335;51.566;6.994;2023-05-10T15:20:39;5.77;;;3.20;;
48552;SDS011;34335;51.566;6.994;2023-05-10T15:23:04;7.03;;;2.83;;
48552;SDS011;34335;51.566;6.994;2023-05-10T15:25:30;7.72;;;2.80;;
48552;SDS011;34335;51.566;6.994;2023-05-10T15:27:55;3.30;;;1.83;;
48552;SDS011;34335;51.566;6.994;2023-05-10T15:30:20;7.65;;;3.10;;
48552;SDS011;34335;51.566;6.994;2023-05-10T15:32:46;5.40;;;3.20;;
48552;SDS011;34335;51.566;6.994;2023-05-10T15:35:11;6.53;;;3.53;;
48552;SDS011;34335;51.566;6.994;2023-05-10T15:37:37;6.82;;;3.38;;
48552;SDS011;34335;51.566;6.994;2023-05-10T15:40:03;6.60;;;3.67;;
48552;SDS011;34335;51.566;6.994;2023-05-10T15:42:31;5.40;;;2.97;;
48552;SDS011;34335;51.566;6.994;2023-05-10T15:44:57;6.63;;;3.10;;
48552;SDS011;34335;51.566;6.994;2023-05-10T15:47:23;7.78;;;3.03;;
48552;SDS011;34335;51.566;6.994;2023-05-10T15:49:52;6.38;;;3.42;;
48552;SDS011;34335;51.566;6.994;2023-05-10T15:52:17;6.57;;;3.13;;
48552;SDS011;34335;51.566;6.994;2023-05-10T15:54:43;5.60;;;3.28;;
48552;SDS011;34335;51.566;6.994;2023-05-10T15:57:08;5.00;;;2.85;;
48552;SDS011;34335;51.566;6.994;2023-05-10T15:59:34;6.03;;;3.38;;
48552;SDS011;34335;51.566;6.994;2023-05-10T16:01:59;8.57;;;3.88;;
48552;SDS011;34335;51.566;6.994;2023-05-10T16:04:25;6.57;;;3.40;;
48552;SDS011;34335;51.566;6.994;2023-05-10T16:06:51;6.03;;;3.35;;
48552;SDS011;34335;51.566;6.994;2023-05-10T16:09:16;8.77;;;3.35;;
48552;SDS011;34335;51.566;6.994;2023-05-10T16:11:42;7.07;;;3.85;;
48552;SDS011;34335;51.566;6.994;2023-05-10T16:14:08;7.20;;;3.63;;
48552;SDS011;34335;51.566;6.994;2023-05-10T16:16:33;6.38;;;3.25;;
48552;SDS011;34335;51.566;6.994;2023-05-10T16:18:59;8.30;;;3.03;;
48552;SDS011;34335;51.566;6.994;2023-05-10T16:21:25;5.25;;;3.10;;
48552;SDS011;34335;51.566;6.994;2023-05-10T16:23:52;8.07;;;3.35;;
48552;SDS011;34335;51.566;6.994;2023-05-10T16:26:17;5.57;;;3.60;;
48552;SDS011;34335;51.566;6.994;2023-05-10T16:28:43;8.70;;;3.60;;
48552;SDS011;34335;51.566;6.994;2023-05-10T16:31:08;6.90;;;3.80;;
48552;SDS011;34335;51.566;6.994;2023-05-10T16:33:33;6.63;;;3.47;;
48552;SDS011;34335;51.566;6.994;2023-05-10T16:35:59;6.75;;;4.35;;
48552;SDS011;34335;51.566;6.994;2023-05-10T16:38:24;6.63;;;3.77;;
48552;SDS011;34335;51.566;6.994;2023-05-10T16:40:49;8.18;;;3.92;;
48552;SDS011;34335;51.566;6.994;2023-05-10T16:43:15;7.10;;;3.30;;
48552;SDS011;34335;51.566;6.994;2023-05-10T16:45:40;5.43;;;3.22;;
48552;SDS011;34335;51.566;6.994;2023-05-10T16:48:06;8.70;;;3.50;;
48552;SDS011;34335;51.566;6.994;2023-05-10T16:50:31;7.03;;;3.42;;
48552;SDS011;34335;51.566;6.994;2023-05-10T16:52:56;8.60;;;4.22;;
48552;SDS011;34335;51.566;6.994;2023-05-10T16:55:22;6.87;;;3.13;;
48552;SDS011;34335;51.566;6.994;2023-05-10T16:57:47;4.82;;;2.60;;
48552;SDS011;34335;51.566;6.994;2023-05-10T17:00:13;5.63;;;3.05;;
48552;SDS011;34335;51.566;6.994;2023-05-10T17:02:39;4.57;;;2.72;;
48552;SDS011;34335;51.566;6.994;2023-05-10T17:05:04;7.65;;;2.78;;
48552;SDS011;34335;51.566;6.994;2023-05-10T17:07:30;5.57;;;3.08;;
48552;SDS011;34335;51.566;6.994;2023-05-10T17:09:55;7.40;;;2.60;;
48552;SDS011;34335;51.566;6.994;2023-05-10T17:12:20;5.13;;;2.58;;
48552;SDS011;34335;51.566;6.994;2023-05-10T17:14:46;5.57;;;2.40;;
48552;SDS011;34335;51.566;6.994;2023-05-10T17:17:11;4.25;;;1.90;;
48552;SDS011;34335;51.566;6.994;2023-05-10T17:19:37;4.45;;;2.30;;
48552;SDS011;34335;51.566;6.994;2023-05-10T17:22:02;4.55;;;2.25;;
48552;SDS011;34335;51.566;6.994;2023-05-10T17:24:27;4.07;;;2.00;;
48552;SDS011;34335;51.566;6.994;2023-05-10T17:26:53;5.10;;;2.53;;
48552;SDS011;34335;51.566;6.994;2023-05-10T17:29:19;4.35;;;2.30;;
48552;SDS011;34335;51.566;6.994;2023-05-10T17:31:45;6.22;;;2.60;;
48552;SDS011;34335;51.566;6.994;2023-05-10T17:34:10;5.53;;;2.03;;
48552;SDS011;34335;51.566;6.994;2023-05-10T17:36:35;6.72;;;2.63;;
48552;SDS011;34335;51.566;6.994;2023-05-10T17:39:00;5.90;;;2.23;;
48552;SDS011;34335;51.566;6.994;2023-05-10T17:41:26;4.77;;;2.20;;
48552;SDS011;34335;51.566;6.994;2023-05-10T17:43:51;3.88;;;1.95;;
48552;SDS011;34335;51.566;6.994;2023-05-10T17:46:17;5.28;;;2.17;;
48552;SDS011;34335;51.566;6.994;2023-05-10T17:48:42;3.87;;;1.87;;
48552;SDS011;34335;51.566;6.994;2023-05-10T17:51:07;4.47;;;2.33;;
48552;SDS011;34335;51.566;6.994;2023-05-10T17:53:33;4.40;;;2.30;;
48552;SDS011;34335;51.566;6.994;2023-05-10T17:55:59;4.00;;;2.00;;
48552;SDS011;34335;51.566;6.994;2023-05-10T17:58:25;5.15;;;2.25;;
48552;SDS011;34335;51.566;6.994;2023-05-10T18:00:51;4.07;;;2.38;;
48552;SDS011;34335;51.566;6.994;2023-05-10T18:03:17;4.30;;;2.20;;
48552;SDS011;34335;51.566;6.994;2023-05-10T18:05:42;5.33;;;2.30;;
48552;SDS011;34335;51.566;6.994;2023-05-10T18:08:08;4.30;;;2.10;;
48552;SDS011;34335;51.566;6.994;2023-05-10T18:10:33;3.92;;;1.92;;
48552;SDS011;34335;51.566;6.994;2023-05-10T18:13:00;4.13;;;1.95;;
48552;SDS011;34335;51.566;6.994;2023-05-10T18:15:28;4.13;;;2.17;;
48552;SDS011;34335;51.566;6.994;2023-05-10T18:17:53;3.58;;;2.13;;
48552;SDS011;34335;51.566;6.994;2023-05-10T18:20:19;5.28;;;2.47;;
48552;SDS011;34335;51.566;6.994;2023-05-10T18:22:45;6.00;;;3.00;;
48552;SDS011;34335;51.566;6.994;2023-05-10T18:25:10;5.07;;;2.63;;
48552;SDS011;34335;51.566;6.994;2023-05-10T18:27:35;4.80;;;2.45;;
48552;SDS011;34335;51.566;6.994;2023-05-10T18:30:01;5.25;;;3.03;;
48552;SDS011;34335;51.566;6.994;2023-05-10T18:32:26;5.30;;;2.23;;
48552;SDS011;34335;51.566;6.994;2023-05-10T18:34:51;5.88;;;2.40;;
48552;SDS011;34335;51.566;6.994;2023-05-10T18:37:17;4.72;;;2.65;;
48552;SDS011;34335;51.566;6.994;2023-05-10T18:39:42;5.68;;;2.65;;
48552;SDS011;34335;51.566;6.994;2023-05-10T18:42:07;4.53;;;2.53;;
48552;SDS011;34335;51.566;6.994;2023-05-10T18:44:33;4.80;;;2.60;;
48552;SDS011;34335;51.566;6.994;2023-05-10T18:46:58;4.30;;;2.15;;
48552;SDS011;34335;51.566;6.994;2023-05-10T18:49:24;5.50;;;2.40;;
48552;SDS011;34335;51.566;6.994;2023-05-10T18:51:50;4.93;;;2.60;;
48552;SDS011;34335;51.566;6.994;2023-05-10T18:54:16;5.80;;;2.83;;
48552;SDS011;34335;51.566;6.994;2023-05-10T18:56:41;5.20;;;2.70;;
48552;SDS011;34335;51.566;6.994;2023-05-10T18:59:09;5.57;;;2.08;;
48552;SDS011;34335;51.566;6.994;2023-05-10T19:01:34;6.60;;;2.80;;
48552;SDS011;34335;51.566;6.994;2023-05-10T19:04:00;4.30;;;2.38;;
48552;SDS011;34335;51.566;6.994;2023-05-10T19:06:25;6.47;;;2.50;;
48552;SDS011;34335;51.566;6.994;2023-05-10T19:08:50;5.03;;;2.37;;
48552;SDS011;34335;51.566;6.994;2023-05-10T19:11:16;5.75;;;2.72;;
48552;SDS011;34335;51.566;6.994;2023-05-10T19:13:42;5.03;;;2.70;;
48552;SDS011;34335;51.566;6.994;2023-05-10T19:16:09;6.30;;;2.65;;
48552;SDS011;34335;51.566;6.994;2023-05-10T19:18:40;4.00;;;2.28;;
48552;SDS011;34335;51.566;6.994;2023-05-10T19:21:05;4.80;;;2.67;;
48552;SDS011;34335;51.566;6.994;2023-05-10T19:23:32;6.80;;;2.92;;
48552;SDS011;34335;51.566;6.994;2023-05-10T19:25:58;5.47;;;2.97;;
48552;SDS011;34335;51.566;6.994;2023-05-10T19:28:23;6.30;;;2.60;;
48552;SDS011;34335;51.566;6.994;2023-05-10T19:30:49;5.35;;;2.58;;
48552;SDS011;34335;51.566;6.994;2023-05-10T19:33:15;6.05;;;2.97;;
48552;SDS011;34335;51.566;6.994;2023-05-10T19:35:41;4.38;;;2.25;;
48552;SDS011;34335;51.566;6.994;2023-05-10T19:38:07;5.93;;;2.97;;
48552;SDS011;34335;51.566;6.994;2023-05-10T19:40:32;6.50;;;2.80;;
48552;SDS011;34335;51.566;6.994;2023-05-10T19:42:57;7.60;;;3.05;;
48552;SDS011;34335;51.566;6.994;2023-05-10T19:45:24;6.18;;;3.15;;
48552;SDS011;34335;51.566;6.994;2023-05-10T19:47:50;6.47;;;3.42;;
48552;SDS011;34335;51.566;6.994;2023-05-10T19:50:15;5.55;;;3.58;;
48552;SDS011;34335;51.566;6.994;2023-05-10T19:52:41;6.90;;;3.30;;
48552;SDS011;34335;51.566;6.994;2023-05-10T19:55:06;8.00;;;3.75;;
48552;SDS011;34335;51.566;6.994;2023-05-10T19:57:32;6.40;;;3.50;;
48552;SDS011;34335;51.566;6.994;2023-05-10T19:59:58;8.10;;;3.78;;
48552;SDS011;34335;51.566;6.994;2023-05-10T20:02:23;9.33;;;4.17;;
48552;SDS011;34335;51.566;6.994;2023-05-10T20:04:48;5.80;;;3.33;;
48552;SDS011;34335;51.566;6.994;2023-05-10T20:07:14;6.50;;;3.47;;
48552;SDS011;34335;51.566;6.994;2023-05-10T20:09:40;5.55;;;3.22;;
48552;SDS011;34335;51.566;6.994;2023-05-10T20:12:07;7.13;;;3.35;;
48552;SDS011;34335;51.566;6.994;2023-05-10T20:14:32;6.10;;;3.17;;
48552;SDS011;34335;51.566;6.994;2023-05-10T20:16:58;7.70;;;3.50;;
48552;SDS011;34335;51.566;6.994;2023-05-10T20:19:23;8.40;;;4.20;;